Archival Weather

Chicago O'Hare International

Chicago, Illinois (KORD)

Report from: Thursday, March 21, 2024 7:51 PM CDT
Current time: Tuesday, May 21, 2024 12:39 PM CDT

Current weather – Weather history – Daily summaries
Weather forecast

Temperature2.2°C (36.0°F)
Wind chill-2.0°C (28.5°F)
Dew point-5.6°C (21.9°F)
Winds 9 kts (4.6 m/s, 10.4 mph) East (90°)
Visibility10 mi. (16.1 km)
Clouds Scattered clouds 10,000 ft. (3,048 m)
Ceiling: Broken clouds 12,000 ft. (3,658 m)
Altimeter30.22 in.Hg (1023 mB)
Relative humidity56 %
Density altitude-1,853 ft. (-565 m)
Sea-level pressure102.4 kPa (1024 mB, 30.24 in.Hg)
Remarks System requires maintenance
Automated weather observing station with precipitation discriminator
Flight conditions Visual Meteorological Conditions
Raw dataKORD 220051Z 09009KT 10SM SCT100 BKN120 02/M06 A3022 RMK AO2 SLP239 T00221056 $
An error has occurred. This application may no longer respond until reloaded. Reload 🗙